createdAt,value
2022-09-23T00:02:07.560Z,17.78
2022-09-23T00:04:42.267Z,17.77
2022-09-23T00:07:14.993Z,17.75
2022-09-23T00:09:48.123Z,17.76
2022-09-23T00:12:20.932Z,17.69
2022-09-23T00:14:54.162Z,17.68
2022-09-23T00:17:27.268Z,17.60
2022-09-23T00:20:01.684Z,17.59
2022-09-23T00:22:34.596Z,17.48
2022-09-23T00:25:09.877Z,17.46
2022-09-23T00:27:42.709Z,17.48
2022-09-23T00:30:15.654Z,17.39
2022-09-23T00:32:48.452Z,17.43
2022-09-23T00:35:22.535Z,17.44
2022-09-23T00:37:56.525Z,17.52
2022-09-23T00:40:29.296Z,17.36
2022-09-23T00:43:02.033Z,17.37
2022-09-23T00:45:35.090Z,17.36
2022-09-23T00:48:15.689Z,17.42
2022-09-23T00:50:55.236Z,17.40
2022-09-23T00:53:29.796Z,17.31
2022-09-23T00:56:07.280Z,17.37
2022-09-23T00:58:42.106Z,17.29
2022-09-23T01:01:15.341Z,17.25
2022-09-23T01:03:48.398Z,17.29
2022-09-23T01:06:22.364Z,17.31
2022-09-23T01:08:55.567Z,17.28
2022-09-23T01:11:39.830Z,17.29
2022-09-23T01:14:29.029Z,17.21
2022-09-23T01:17:09.967Z,17.17
2022-09-23T01:20:09.442Z,17.21
2022-09-23T01:22:50.059Z,17.17
2022-09-23T01:25:44.969Z,17.15
2022-09-23T01:28:40.241Z,17.12
2022-09-23T01:31:19.473Z,17.19
2022-09-23T01:33:58.011Z,17.16
2022-09-23T01:36:38.487Z,17.16
2022-09-23T01:39:15.979Z,17.06
2022-09-23T01:42:02.162Z,17.12
2022-09-23T01:44:43.025Z,17.15
2022-09-23T01:47:22.766Z,17.16
2022-09-23T01:50:00.790Z,17.07
2022-09-23T01:52:39.855Z,17.05
2022-09-23T01:55:17.611Z,17.07
2022-09-23T01:57:57.800Z,17.07
2022-09-23T02:00:34.929Z,17.12
2022-09-23T02:03:16.453Z,17.02
2022-09-23T02:05:53.823Z,17.04
2022-09-23T02:08:30.879Z,17.04
2022-09-23T02:11:08.083Z,17.09
2022-09-23T02:13:46.222Z,17.03
2022-09-23T02:16:27.611Z,17.01
2022-09-23T02:19:07.278Z,17.02
2022-09-23T02:21:44.897Z,16.96
2022-09-23T02:24:21.092Z,16.99
2022-09-23T02:26:57.090Z,16.98
2022-09-23T02:29:36.346Z,17.04
2022-09-23T02:32:17.994Z,17.01
2022-09-23T02:35:01.050Z,16.94
2022-09-23T02:37:43.607Z,16.97
2022-09-23T02:40:25.290Z,17.10
2022-09-23T02:43:06.225Z,16.96
2022-09-23T02:45:39.436Z,16.99
2022-09-23T02:48:16.964Z,16.96
2022-09-23T02:50:51.048Z,17.04
2022-09-23T02:53:24.772Z,17.13
2022-09-23T02:55:58.565Z,17.02
2022-09-23T02:58:31.606Z,16.94
2022-09-23T03:01:26.834Z,16.98
2022-09-23T03:04:14.009Z,17.06
2022-09-23T03:07:00.397Z,16.97
2022-09-23T03:09:35.969Z,17.04
2022-09-23T03:12:16.800Z,17.04
2022-09-23T03:14:55.709Z,17.09
2022-09-23T03:17:34.733Z,17.12
2022-09-23T03:20:13.668Z,17.03
2022-09-23T03:22:54.865Z,16.97
2022-09-23T03:25:31.547Z,16.99
2022-09-23T03:28:05.747Z,17.09
2022-09-23T03:30:40.208Z,17.00
2022-09-23T03:33:16.672Z,17.07
2022-09-23T03:36:16.281Z,17.05
2022-09-23T03:38:52.977Z,16.97
2022-09-23T03:41:33.527Z,17.07
2022-09-23T03:44:11.549Z,17.05
2022-09-23T03:46:49.922Z,17.17
2022-09-23T03:49:28.837Z,17.14
2022-09-23T03:52:03.754Z,17.09
2022-09-23T03:54:38.899Z,17.09
2022-09-23T03:57:28.141Z,17.17
2022-09-23T04:00:13.346Z,17.13
2022-09-23T04:02:49.853Z,17.10
2022-09-23T04:05:25.167Z,17.17
2022-09-23T04:07:58.617Z,17.18
2022-09-23T04:11:18.483Z,17.17
2022-09-23T04:14:23.929Z,17.17
2022-09-23T04:17:11.400Z,17.18
2022-09-23T04:19:47.792Z,17.22
2022-09-23T04:22:26.693Z,17.26
2022-09-23T04:25:19.987Z,17.19
2022-09-23T04:27:57.033Z,17.17
2022-09-23T04:30:53.528Z,17.17
2022-09-23T04:33:29.464Z,17.20
2022-09-23T04:36:05.550Z,17.20
2022-09-23T04:38:38.376Z,17.27
2022-09-23T04:41:11.786Z,17.21
2022-09-23T04:43:47.347Z,17.19
2022-09-23T04:46:22.024Z,17.20
2022-09-23T04:48:55.262Z,17.16
2022-09-23T04:51:31.667Z,17.27
2022-09-23T04:54:06.205Z,17.12
2022-09-23T04:56:40.015Z,17.13
2022-09-23T04:59:15.595Z,17.25
2022-09-23T05:01:51.587Z,17.17
2022-09-23T05:04:31.043Z,17.19
2022-09-23T05:07:20.495Z,17.20
2022-09-23T05:10:28.677Z,17.29
2022-09-23T05:13:40.201Z,17.21
2022-09-23T05:16:25.035Z,17.21
2022-09-23T05:18:58.653Z,17.21
2022-09-23T05:21:32.305Z,17.24
2022-09-23T05:24:06.058Z,17.32
2022-09-23T05:26:39.630Z,17.33
2022-09-23T05:29:12.552Z,17.32
2022-09-23T05:31:47.222Z,17.23
2022-09-23T05:34:20.343Z,17.22
2022-09-23T05:36:53.317Z,17.25
2022-09-23T05:39:27.375Z,17.30
2022-09-23T05:42:25.559Z,17.31
2022-09-23T05:45:28.199Z,17.27
2022-09-23T05:48:43.170Z,17.32
2022-09-23T05:51:22.551Z,17.34
2022-09-23T05:53:59.658Z,17.40
2022-09-23T05:56:34.115Z,17.36
2022-09-23T05:59:07.375Z,17.30
2022-09-23T06:01:40.809Z,17.39
2022-09-23T06:04:15.580Z,17.42
2022-09-23T06:06:48.532Z,17.42
2022-09-23T06:09:21.216Z,17.39
2022-09-23T06:11:54.062Z,17.36
2022-09-23T06:14:27.597Z,17.39
2022-09-23T06:17:03.099Z,17.35
2022-09-23T06:19:37.065Z,17.35
2022-09-23T06:22:10.831Z,17.38
2022-09-23T06:24:43.908Z,17.37
2022-09-23T06:27:16.590Z,17.46
2022-09-23T06:29:51.880Z,17.50
2022-09-23T06:32:24.529Z,17.55
2022-09-23T06:34:58.582Z,17.61
2022-09-23T06:37:33.315Z,17.65
2022-09-23T06:40:06.951Z,17.67
2022-09-23T06:42:39.664Z,17.62
2022-09-23T06:45:15.276Z,17.74
2022-09-23T06:47:51.248Z,17.64
2022-09-23T06:50:26.933Z,17.68
2022-09-23T06:52:59.737Z,17.73
2022-09-23T06:55:33.287Z,17.72
2022-09-23T06:58:06.164Z,17.71
2022-09-23T07:00:39.320Z,17.72
2022-09-23T07:03:11.915Z,17.75
2022-09-23T07:05:46.064Z,17.81
2022-09-23T07:08:19.001Z,17.89
2022-09-23T07:10:55.273Z,17.93
2022-09-23T07:13:29.499Z,18.07
2022-09-23T07:16:03.693Z,18.08
2022-09-23T07:18:37.730Z,18.20
2022-09-23T07:21:16.388Z,18.29
2022-09-23T07:23:51.972Z,18.29
2022-09-23T07:26:26.335Z,18.26
2022-09-23T07:29:05.200Z,18.31
2022-09-23T07:31:40.182Z,18.39
2022-09-23T07:34:13.038Z,18.35
2022-09-23T07:36:49.758Z,18.42
2022-09-23T07:39:22.728Z,18.44
2022-09-23T07:41:56.824Z,18.60
2022-09-23T07:44:31.631Z,18.63
2022-09-23T07:47:05.296Z,18.47
2022-09-23T07:49:38.604Z,18.59
2022-09-23T07:52:12.966Z,18.68
2022-09-23T07:54:48.034Z,18.86
2022-09-23T07:57:20.982Z,18.90
2022-09-23T07:59:53.706Z,18.98
2022-09-23T08:02:26.536Z,19.06
2022-09-23T08:04:59.246Z,19.14
2022-09-23T08:07:34.401Z,19.31
2022-09-23T08:10:08.387Z,19.37
2022-09-23T08:12:41.450Z,19.47
2022-09-23T08:15:14.668Z,19.61
2022-09-23T08:17:48.000Z,19.70
2022-09-23T08:20:34.636Z,19.79
2022-09-23T08:23:09.096Z,19.79
2022-09-23T08:25:44.634Z,19.80
2022-09-23T08:28:19.180Z,19.89
2022-09-23T08:30:52.092Z,19.91
2022-09-23T08:33:25.437Z,19.91
2022-09-23T08:36:01.331Z,20.00
2022-09-23T08:38:35.752Z,20.08
2022-09-23T08:41:17.614Z,20.18
2022-09-23T08:43:54.326Z,20.22
2022-09-23T08:46:33.163Z,20.15
2022-09-23T08:49:07.699Z,20.23
2022-09-23T08:51:46.235Z,20.33
2022-09-23T08:54:20.526Z,20.32
2022-09-23T08:56:55.340Z,20.39
2022-09-23T08:59:38.992Z,20.53
2022-09-23T09:02:19.019Z,20.54
2022-09-23T09:04:55.756Z,20.57
2022-09-23T09:07:37.069Z,20.64
2022-09-23T09:10:18.537Z,20.75
2022-09-23T09:12:55.428Z,20.77
2022-09-23T09:15:29.593Z,20.81
2022-09-23T09:18:07.649Z,20.88
2022-09-23T09:20:42.889Z,20.91
2022-09-23T09:23:22.782Z,20.92
2022-09-23T09:26:00.019Z,20.98
2022-09-23T09:28:40.125Z,21.01
2022-09-23T09:31:24.166Z,21.05
2022-09-23T09:34:03.862Z,21.05
2022-09-23T09:36:43.610Z,21.14
2022-09-23T09:39:17.264Z,21.21
2022-09-23T09:41:52.851Z,21.33
2022-09-23T09:44:31.633Z,21.27
2022-09-23T09:47:17.814Z,21.34
2022-09-23T09:50:00.679Z,21.41
2022-09-23T09:52:33.400Z,21.47
2022-09-23T09:55:25.416Z,21.46
2022-09-23T09:58:04.143Z,21.58
2022-09-23T10:00:42.733Z,21.56
2022-09-23T10:03:26.736Z,21.69
2022-09-23T10:06:00.100Z,21.67
2022-09-23T10:08:35.210Z,21.72
2022-09-23T10:11:16.149Z,21.71
2022-09-23T10:14:06.681Z,21.77
2022-09-23T10:16:40.138Z,21.75
2022-09-23T10:19:18.086Z,21.80
2022-09-23T10:21:59.859Z,21.94
2022-09-23T10:24:37.597Z,21.88
2022-09-23T10:27:12.282Z,21.98
2022-09-23T10:29:52.318Z,22.01
2022-09-23T10:32:28.976Z,22.01
2022-09-23T10:35:14.536Z,22.09
2022-09-23T10:37:50.541Z,22.21
2022-09-23T10:40:48.309Z,22.21
2022-09-23T10:43:45.760Z,22.26
2022-09-23T10:46:41.498Z,22.30
2022-09-23T10:49:34.756Z,22.40
2022-09-23T10:52:20.516Z,22.41
2022-09-23T10:55:05.140Z,22.55
2022-09-23T10:57:53.061Z,22.70
2022-09-23T11:00:37.823Z,22.85
2022-09-23T11:03:34.803Z,23.04
2022-09-23T11:06:19.989Z,23.16
2022-09-23T11:09:10.822Z,23.30
2022-09-23T11:11:54.977Z,23.35
2022-09-23T11:14:46.342Z,23.49
2022-09-23T11:17:33.418Z,23.61
2022-09-23T11:20:40.982Z,23.81
2022-09-23T11:23:38.765Z,23.83
2022-09-23T11:26:29.115Z,24.04
2022-09-23T11:29:33.805Z,24.17
2022-09-23T11:32:27.756Z,24.36
2022-09-23T11:35:12.786Z,24.67
2022-09-23T11:37:49.999Z,24.87
2022-09-23T11:40:30.246Z,25.07
2022-09-23T11:43:08.189Z,25.27
2022-09-23T11:45:46.362Z,25.34
2022-09-23T11:48:25.957Z,25.37
2022-09-23T11:51:02.665Z,25.52
2022-09-23T11:53:46.791Z,25.63
2022-09-23T11:56:34.523Z,25.71
2022-09-23T11:59:16.439Z,25.72
2022-09-23T12:02:20.654Z,25.82
2022-09-23T12:05:06.761Z,25.89
2022-09-23T12:07:51.513Z,25.84
2022-09-23T12:10:37.285Z,25.89
2022-09-23T12:13:19.097Z,25.98
2022-09-23T12:16:05.376Z,26.03
2022-09-23T12:18:49.030Z,25.85
2022-09-23T12:21:51.804Z,25.91
2022-09-23T12:24:46.565Z,25.97
2022-09-23T12:27:30.163Z,26.01
2022-09-23T12:30:12.783Z,25.98
2022-09-23T12:32:45.771Z,25.93
2022-09-23T12:35:23.361Z,25.96
2022-09-23T12:37:56.193Z,25.94
2022-09-23T12:40:34.098Z,25.93
2022-09-23T12:43:17.662Z,25.88
2022-09-23T12:45:50.901Z,25.95
2022-09-23T12:48:43.622Z,25.94
2022-09-23T12:51:21.778Z,25.88
2022-09-23T12:54:22.219Z,25.92
2022-09-23T12:57:06.845Z,25.95
2022-09-23T13:00:09.650Z,25.95
2022-09-23T13:02:44.423Z,25.93
2022-09-23T13:05:39.850Z,25.93
2022-09-23T13:08:18.852Z,25.95
2022-09-23T13:10:57.254Z,25.88
2022-09-23T13:13:34.340Z,25.82
2022-09-23T13:16:22.847Z,25.74
2022-09-23T13:18:57.089Z,25.85
2022-09-23T13:22:08.863Z,25.72
2022-09-23T13:24:46.801Z,25.68
2022-09-23T13:27:27.862Z,25.64
2022-09-23T13:30:03.715Z,25.60
2022-09-23T13:32:41.735Z,25.45
2022-09-23T13:35:19.640Z,25.41
2022-09-23T13:37:52.691Z,25.25
2022-09-23T13:40:27.833Z,25.26
2022-09-23T13:43:04.095Z,25.20
2022-09-23T13:45:41.365Z,25.13
2022-09-23T13:48:16.898Z,25.06
2022-09-23T13:50:51.173Z,25.00
2022-09-23T13:53:28.616Z,24.96
2022-09-23T13:56:06.425Z,24.93
2022-09-23T13:58:39.690Z,25.00
2022-09-23T14:01:24.049Z,24.97
2022-09-23T14:03:58.233Z,24.93
2022-09-23T14:06:31.962Z,24.97
2022-09-23T14:09:04.918Z,24.94
2022-09-23T14:11:37.453Z,24.90
2022-09-23T14:14:15.646Z,24.82
2022-09-23T14:16:51.314Z,24.84
2022-09-23T14:19:26.946Z,24.86
2022-09-23T14:22:00.478Z,24.89
2022-09-23T14:24:34.999Z,24.92
2022-09-23T14:27:15.962Z,24.81
2022-09-23T14:29:50.779Z,24.76
2022-09-23T14:32:27.595Z,24.65
2022-09-23T14:35:17.566Z,24.50
2022-09-23T14:38:10.810Z,24.37
2022-09-23T14:40:52.878Z,24.21
2022-09-23T14:43:29.168Z,24.07
2022-09-23T14:46:01.992Z,23.92
2022-09-23T14:48:36.786Z,23.86
2022-09-23T14:51:16.230Z,23.76
2022-09-23T14:53:51.369Z,23.69
2022-09-23T14:56:25.335Z,23.48
2022-09-23T14:58:59.814Z,23.39
2022-09-23T15:01:38.796Z,23.33
2022-09-23T15:04:18.266Z,23.20
2022-09-23T15:06:55.695Z,23.14
2022-09-23T15:09:31.545Z,23.18
2022-09-23T15:12:08.076Z,23.11
2022-09-23T15:14:46.354Z,23.03
2022-09-23T15:17:32.882Z,22.92
2022-09-23T15:20:09.822Z,22.89
2022-09-23T15:22:48.477Z,22.81
2022-09-23T15:25:25.754Z,22.79
2022-09-23T15:28:02.432Z,22.80
2022-09-23T15:30:37.389Z,22.70
2022-09-23T15:33:13.342Z,22.68
2022-09-23T15:35:48.535Z,22.63
2022-09-23T15:38:23.794Z,22.59
2022-09-23T15:40:56.860Z,22.59
2022-09-23T15:43:31.575Z,22.58
2022-09-23T15:46:32.352Z,22.55
2022-09-23T15:49:10.225Z,22.49
2022-09-23T15:51:43.722Z,22.48
2022-09-23T15:54:17.831Z,22.49
2022-09-23T15:56:50.632Z,22.48
2022-09-23T15:59:23.883Z,22.41
2022-09-23T16:01:58.265Z,22.43
2022-09-23T16:04:31.474Z,22.41
2022-09-23T16:07:05.577Z,22.37
2022-09-23T16:09:39.685Z,22.29
2022-09-23T16:12:13.000Z,22.22
2022-09-23T16:14:45.849Z,22.23
2022-09-23T16:17:18.630Z,22.24
2022-09-23T16:19:51.725Z,22.18
2022-09-23T16:22:24.519Z,22.21
2022-09-23T16:24:58.671Z,22.11
2022-09-23T16:27:31.398Z,22.09
2022-09-23T16:30:04.917Z,22.13
2022-09-23T16:32:38.215Z,22.10
2022-09-23T16:35:11.199Z,22.07
2022-09-23T16:37:47.079Z,22.08
2022-09-23T16:40:24.188Z,22.11
2022-09-23T16:42:58.409Z,22.05
2022-09-23T16:45:31.465Z,22.09
2022-09-23T16:48:06.201Z,22.12
2022-09-23T16:50:39.510Z,22.12
2022-09-23T16:53:12.156Z,22.06
2022-09-23T16:55:46.301Z,22.03
2022-09-23T16:58:18.989Z,22.01
2022-09-23T17:01:15.704Z,22.03
2022-09-23T17:03:48.539Z,22.00
2022-09-23T17:06:23.182Z,22.01
2022-09-23T17:08:56.396Z,21.99
2022-09-23T17:11:33.959Z,22.01
2022-09-23T17:14:07.412Z,21.95
2022-09-23T17:16:40.264Z,21.98
2022-09-23T17:19:13.335Z,21.89
2022-09-23T17:21:46.496Z,21.88
2022-09-23T17:24:19.293Z,21.85
2022-09-23T17:26:53.654Z,21.86
2022-09-23T17:29:29.108Z,21.88
2022-09-23T17:32:02.540Z,21.80
2022-09-23T17:34:35.501Z,21.80
2022-09-23T17:37:08.366Z,21.75
2022-09-23T17:39:42.382Z,21.71
2022-09-23T17:42:19.044Z,21.71
2022-09-23T17:44:51.910Z,21.70
2022-09-23T17:47:24.839Z,21.69
2022-09-23T17:49:58.746Z,21.66
2022-09-23T17:52:31.656Z,21.64
2022-09-23T17:55:04.794Z,21.65
2022-09-23T17:57:38.948Z,21.50
2022-09-23T18:00:13.131Z,21.33
2022-09-23T18:02:45.935Z,21.47
2022-09-23T18:05:19.053Z,21.45
2022-09-23T18:07:52.236Z,21.41
2022-09-23T18:10:24.962Z,21.13
2022-09-23T18:12:59.021Z,21.34
2022-09-23T18:15:31.820Z,21.14
2022-09-23T18:18:05.273Z,21.29
2022-09-23T18:20:38.011Z,21.16
2022-09-23T18:23:12.887Z,21.20
2022-09-23T18:25:45.776Z,21.13
2022-09-23T18:28:21.944Z,21.14
2022-09-23T18:30:58.466Z,21.10
2022-09-23T18:33:37.889Z,21.10
2022-09-23T18:36:13.851Z,21.10
2022-09-23T18:38:51.538Z,21.06
2022-09-23T18:41:37.366Z,20.98
2022-09-23T18:44:19.830Z,20.98
2022-09-23T18:47:04.018Z,21.07
2022-09-23T18:50:13.181Z,20.99
2022-09-23T18:52:53.453Z,20.88
2022-09-23T18:55:34.482Z,20.98
2022-09-23T18:58:15.958Z,20.94
2022-09-23T19:01:09.918Z,20.83
2022-09-23T19:03:47.110Z,20.85
2022-09-23T19:06:22.604Z,20.70
2022-09-23T19:08:57.737Z,20.84
2022-09-23T19:11:54.190Z,20.73
2022-09-23T19:14:30.254Z,20.72
2022-09-23T19:17:13.359Z,20.75
2022-09-23T19:20:09.928Z,20.64
2022-09-23T19:23:10.486Z,20.63
2022-09-23T19:25:46.545Z,20.62
2022-09-23T19:28:28.940Z,20.66
2022-09-23T19:31:43.228Z,20.67
2022-09-23T19:35:07.358Z,20.70
2022-09-23T19:37:49.123Z,20.59
2022-09-23T19:40:25.853Z,20.58
2022-09-23T19:43:06.480Z,20.57
2022-09-23T19:45:44.748Z,20.54
2022-09-23T19:48:19.605Z,20.56
2022-09-23T19:51:09.550Z,20.59
2022-09-23T19:53:45.865Z,20.39
2022-09-23T19:56:22.903Z,20.37
2022-09-23T19:59:18.449Z,20.39
2022-09-23T20:01:53.585Z,20.42
2022-09-23T20:04:33.724Z,20.36
2022-09-23T20:07:08.979Z,20.39
2022-09-23T20:09:41.893Z,20.39
2022-09-23T20:12:18.032Z,20.45
2022-09-23T20:14:54.660Z,20.35
2022-09-23T20:17:28.543Z,20.33
2022-09-23T20:20:04.634Z,20.30
2022-09-23T20:22:43.911Z,20.35
2022-09-23T20:25:17.641Z,20.29
2022-09-23T20:27:53.826Z,20.26
2022-09-23T20:30:29.629Z,20.25
2022-09-23T20:33:06.618Z,20.21
2022-09-23T20:36:09.658Z,20.34
2022-09-23T20:38:43.749Z,20.24
2022-09-23T20:41:17.229Z,20.23
2022-09-23T20:43:53.964Z,20.24
2022-09-23T20:46:30.920Z,20.19
2022-09-23T20:49:09.285Z,20.26
2022-09-23T20:51:43.136Z,20.24
2022-09-23T20:54:18.958Z,20.20
2022-09-23T20:57:18.278Z,20.18
2022-09-23T20:59:51.828Z,20.14
2022-09-23T21:02:25.451Z,20.18
2022-09-23T21:05:02.709Z,20.21
2022-09-23T21:07:35.876Z,20.11
2022-09-23T21:10:10.553Z,20.07
2022-09-23T21:12:45.953Z,20.07
2022-09-23T21:15:18.780Z,20.08
2022-09-23T21:17:51.538Z,20.12
2022-09-23T21:20:25.107Z,20.09
2022-09-23T21:23:01.646Z,20.01
2022-09-23T21:25:37.578Z,20.04
2022-09-23T21:28:10.689Z,19.99
2022-09-23T21:30:43.300Z,19.97
2022-09-23T21:33:18.458Z,20.02
2022-09-23T21:35:55.212Z,20.05
2022-09-23T21:38:29.645Z,20.03
2022-09-23T21:41:06.257Z,19.99
2022-09-23T21:43:41.580Z,19.96
2022-09-23T21:46:17.441Z,19.95
2022-09-23T21:48:53.766Z,19.90
2022-09-23T21:51:29.817Z,19.87
2022-09-23T21:54:03.009Z,19.88
2022-09-23T21:56:37.906Z,19.91
2022-09-23T21:59:11.003Z,19.90
2022-09-23T22:01:44.967Z,19.84
2022-09-23T22:04:22.996Z,19.95
2022-09-23T22:06:55.960Z,19.91
2022-09-23T22:09:28.959Z,19.76
2022-09-23T22:12:11.215Z,19.87
2022-09-23T22:14:47.924Z,19.85
2022-09-23T22:17:21.336Z,19.85
2022-09-23T22:19:54.303Z,19.73
2022-09-23T22:22:29.179Z,19.80
2022-09-23T22:25:02.239Z,19.86
2022-09-23T22:27:58.048Z,19.80
2022-09-23T22:30:48.582Z,19.82
2022-09-23T22:33:22.215Z,19.81
2022-09-23T22:36:04.980Z,19.77
2022-09-23T22:38:38.878Z,19.78
2022-09-23T22:41:13.846Z,19.67
2022-09-23T22:43:50.548Z,19.63
2022-09-23T22:46:24.569Z,19.71
2022-09-23T22:48:59.767Z,19.71
2022-09-23T22:51:33.760Z,19.69
2022-09-23T22:54:23.533Z,19.70
2022-09-23T22:56:56.409Z,19.57
2022-09-23T22:59:39.413Z,19.56
2022-09-23T23:02:12.182Z,19.59
2022-09-23T23:04:47.651Z,19.65
2022-09-23T23:07:21.729Z,19.60
2022-09-23T23:09:54.695Z,19.55
2022-09-23T23:12:28.754Z,19.57
2022-09-23T23:15:02.912Z,19.54
2022-09-23T23:17:35.599Z,19.51
2022-09-23T23:20:09.033Z,19.55
2022-09-23T23:22:41.736Z,19.51
2022-09-23T23:25:15.050Z,19.49
2022-09-23T23:27:48.046Z,19.47
2022-09-23T23:30:23.925Z,19.55
2022-09-23T23:32:58.573Z,19.51
2022-09-23T23:35:31.543Z,19.47
2022-09-23T23:38:06.426Z,19.50
2022-09-23T23:40:39.235Z,19.49
2022-09-23T23:43:12.809Z,19.56
2022-09-23T23:45:48.889Z,19.50
2022-09-23T23:48:22.012Z,19.55
2022-09-23T23:50:55.433Z,19.54
2022-09-23T23:53:32.363Z,19.47
2022-09-23T23:56:08.409Z,19.51
2022-09-23T23:58:41.290Z,19.48
